createdAt,value
2019-01-26T00:01:35.950Z,98701.50
2019-01-26T00:04:06.000Z,98689.17
2019-01-26T00:06:35.783Z,98674.59
2019-01-26T00:09:08.826Z,98652.38
2019-01-26T00:11:38.609Z,98639.98
2019-01-26T00:14:08.363Z,98653.99
2019-01-26T00:16:38.001Z,98641.52
2019-01-26T00:19:07.764Z,98647.14
2019-01-26T00:21:37.397Z,98635.43
2019-01-26T00:24:07.300Z,98619.15
2019-01-26T00:26:36.923Z,98619.31
2019-01-26T00:29:06.590Z,98618.80
2019-01-26T00:31:36.229Z,98617.54
2019-01-26T00:34:06.491Z,98627.14
2019-01-26T00:36:36.148Z,98628.16
2019-01-26T00:39:08.848Z,98616.30
2019-01-26T00:41:38.665Z,98601.91
2019-01-26T00:44:08.305Z,98092.70
2019-01-26T00:46:38.190Z,98315.95
2019-01-26T00:49:07.740Z,98128.04
2019-01-26T00:51:37.433Z,98115.51
2019-01-26T00:54:07.067Z,98393.20
2019-01-26T00:56:36.944Z,98581.44
2019-01-26T00:59:06.554Z,98700.20
2019-01-26T01:01:36.706Z,98998.07
2019-01-26T01:04:07.044Z,99181.99
2019-01-26T01:06:37.096Z,99334.91
2019-01-26T01:09:09.160Z,99845.23
2019-01-26T01:11:38.976Z,103596.98
2019-01-26T01:14:09.182Z,124332.22
2019-01-26T01:16:38.871Z,131791.13
2019-01-26T01:19:08.556Z,130892.06
2019-01-26T01:21:38.778Z,129823.48
2019-01-26T01:24:08.601Z,131588.80
2019-01-26T01:26:38.297Z,140353.94
2019-01-26T01:29:07.937Z,119786.55
2019-01-26T01:31:37.630Z,136323.95
2019-01-26T01:34:07.584Z,134948.84
2019-01-26T01:36:37.235Z,127159.04
2019-01-26T01:39:08.825Z,121314.66
2019-01-26T01:41:38.536Z,116895.89
2019-01-26T01:44:08.181Z,113039.92
2019-01-26T01:46:42.901Z,111256.79
2019-01-26T01:49:09.398Z,110456.96
2019-01-26T01:51:39.185Z,109409.80
2019-01-26T01:54:08.800Z,109036.47
2019-01-26T01:56:38.811Z,108435.01
2019-01-26T01:59:08.425Z,107947.92
2019-01-26T02:01:38.134Z,107568.52
2019-01-26T02:04:07.686Z,107119.12
2019-01-26T02:06:37.830Z,106847.11
2019-01-26T02:09:08.653Z,106733.56
2019-01-26T02:11:38.290Z,106562.11
2019-01-26T02:14:08.069Z,106602.70
2019-01-26T02:16:37.664Z,106565.20
2019-01-26T02:19:07.438Z,107444.27
2019-01-26T02:21:37.205Z,107335.60
2019-01-26T02:24:06.959Z,107146.02
2019-01-26T02:26:36.499Z,106870.41
2019-01-26T02:29:06.270Z,106788.25
2019-01-26T02:31:35.896Z,106691.91
2019-01-26T02:34:05.665Z,106513.91
2019-01-26T02:36:35.323Z,106397.76
2019-01-26T02:39:07.537Z,106176.04
2019-01-26T02:41:37.257Z,105886.16
2019-01-26T02:44:07.133Z,105615.20
2019-01-26T02:46:37.143Z,105474.11
2019-01-26T02:49:06.877Z,105250.63
2019-01-26T02:51:55.961Z,105080.91
2019-01-26T02:54:25.755Z,104804.36
2019-01-26T02:56:55.608Z,104565.42
2019-01-26T02:59:25.601Z,104336.59
2019-01-26T03:01:55.504Z,104030.64
2019-01-26T03:04:25.049Z,103764.06
2019-01-26T03:06:54.806Z,103507.31
2019-01-26T03:09:24.422Z,103197.28
2019-01-26T03:11:54.203Z,103019.98
2019-01-26T03:14:23.751Z,102690.87
2019-01-26T03:16:53.909Z,102477.33
2019-01-26T03:19:23.562Z,102205.41
2019-01-26T03:21:53.519Z,101990.25
2019-01-26T03:24:23.229Z,101830.91
2019-01-26T03:26:52.910Z,101698.05
2019-01-26T03:29:22.733Z,101500.33
2019-01-26T03:31:52.306Z,101336.53
2019-01-26T03:34:22.369Z,101129.44
2019-01-26T03:36:51.961Z,100947.13
2019-01-26T03:39:21.842Z,100841.37
2019-01-26T03:41:51.673Z,100731.58
2019-01-26T03:44:21.238Z,100678.70
2019-01-26T03:46:50.849Z,100642.61
2019-01-26T03:49:20.423Z,100581.49
2019-01-26T03:51:50.045Z,100536.35
2019-01-26T03:54:19.916Z,100502.41
2019-01-26T03:56:49.519Z,100479.94
2019-01-26T03:59:19.561Z,100458.20
2019-01-26T04:01:49.486Z,100436.53
2019-01-26T04:04:19.087Z,100412.94
2019-01-26T04:06:49.005Z,100383.85
2019-01-26T04:09:18.674Z,100374.05
2019-01-26T04:11:48.534Z,100362.19
2019-01-26T04:14:18.958Z,100343.81
2019-01-26T04:16:48.791Z,100345.39
2019-01-26T04:19:18.430Z,100337.31
2019-01-26T04:21:47.995Z,100337.39
2019-01-26T04:24:17.592Z,100338.73
2019-01-26T04:26:47.092Z,100332.31
2019-01-26T04:29:16.793Z,100326.95
2019-01-26T04:31:46.287Z,100326.64
2019-01-26T04:34:15.976Z,100328.76
2019-01-26T04:36:52.826Z,100318.84
2019-01-26T04:39:22.357Z,100321.17
2019-01-26T04:41:52.028Z,100331.30
2019-01-26T04:44:21.751Z,100333.98
2019-01-26T04:46:51.270Z,100341.82
2019-01-26T04:49:20.821Z,100348.31
2019-01-26T04:51:50.382Z,100352.39
2019-01-26T04:54:20.084Z,100341.30
2019-01-26T04:56:49.640Z,100354.30
2019-01-26T04:59:19.334Z,100351.11
2019-01-26T05:01:48.937Z,100354.75
2019-01-26T05:04:18.829Z,100351.14
2019-01-26T05:06:48.655Z,100355.28
2019-01-26T05:09:18.326Z,100352.19
2019-01-26T05:11:48.089Z,100350.48
2019-01-26T05:14:17.782Z,100359.94
2019-01-26T05:16:47.458Z,100351.88
2019-01-26T05:19:17.076Z,100359.89
2019-01-26T05:21:46.812Z,100367.66
2019-01-26T05:24:16.494Z,100363.20
2019-01-26T05:26:46.420Z,100346.57
2019-01-26T05:29:18.119Z,100344.34
2019-01-26T05:31:47.821Z,100346.79
2019-01-26T05:34:17.390Z,100339.58
2019-01-26T05:36:47.060Z,100341.91
2019-01-26T05:39:16.795Z,100337.97
2019-01-26T05:41:46.518Z,100339.66
2019-01-26T05:44:16.236Z,100342.23
2019-01-26T05:46:45.845Z,100331.69
2019-01-26T05:49:15.510Z,100331.62
2019-01-26T05:51:45.144Z,100327.97
2019-01-26T05:54:15.011Z,100330.69
2019-01-26T05:56:45.255Z,100318.64
2019-01-26T05:59:15.070Z,100307.08
2019-01-26T06:01:44.719Z,100321.48
2019-01-26T06:04:14.611Z,100319.50
2019-01-26T06:06:44.484Z,100309.44
2019-01-26T06:09:14.208Z,100308.18
2019-01-26T06:11:44.007Z,100299.79
2019-01-26T06:14:13.510Z,100311.08
2019-01-26T06:16:43.436Z,100312.17
2019-01-26T06:19:13.176Z,100296.59
2019-01-26T06:21:42.860Z,100298.22
2019-01-26T06:24:12.659Z,100277.27
2019-01-26T06:26:42.692Z,100286.25
2019-01-26T06:29:12.298Z,100291.13
2019-01-26T06:31:42.165Z,100283.52
2019-01-26T06:34:11.736Z,100290.35
2019-01-26T06:36:41.566Z,100294.91
2019-01-26T06:39:11.279Z,100288.79
2019-01-26T06:41:40.880Z,100293.12
2019-01-26T06:44:10.369Z,100304.95
2019-01-26T06:46:40.274Z,100300.39
2019-01-26T06:49:09.980Z,100304.27
2019-01-26T06:51:41.204Z,100294.77
2019-01-26T06:54:10.905Z,100302.28
2019-01-26T06:56:40.720Z,100294.13
2019-01-26T06:59:10.329Z,100285.31
2019-01-26T07:01:40.130Z,100295.33
2019-01-26T07:04:11.385Z,100294.20
2019-01-26T07:06:41.400Z,100289.62
2019-01-26T07:09:11.379Z,100286.15
2019-01-26T07:11:41.049Z,100277.23
2019-01-26T07:14:10.604Z,100259.75
2019-01-26T07:16:40.313Z,100254.44
2019-01-26T07:19:10.515Z,100258.63
2019-01-26T07:21:40.116Z,100255.75
2019-01-26T07:24:09.975Z,100242.73
2019-01-26T07:26:39.603Z,100234.20
2019-01-26T07:29:09.367Z,100230.22
2019-01-26T07:31:38.944Z,100231.38
2019-01-26T07:34:08.580Z,100215.19
2019-01-26T07:36:38.207Z,100212.20
2019-01-26T07:39:11.114Z,100199.55
2019-01-26T07:41:40.808Z,100180.98
2019-01-26T07:44:10.384Z,100163.95
2019-01-26T07:46:40.160Z,100152.43
2019-01-26T07:49:09.875Z,100144.31
2019-01-26T07:51:39.559Z,100138.36
2019-01-26T07:54:09.335Z,100125.45
2019-01-26T07:56:39.035Z,100119.60
2019-01-26T07:59:08.588Z,100115.95
2019-01-26T08:01:38.123Z,100106.50
2019-01-26T08:04:07.887Z,100102.31
2019-01-26T08:06:37.777Z,100102.63
2019-01-26T08:09:08.831Z,100109.09
2019-01-26T08:11:38.439Z,100105.63
2019-01-26T08:14:08.473Z,100105.83
2019-01-26T08:16:38.461Z,100101.36
2019-01-26T08:19:08.119Z,100089.47
2019-01-26T08:21:37.638Z,100086.11
2019-01-26T08:24:07.365Z,100079.15
2019-01-26T08:26:37.167Z,100059.53
2019-01-26T08:29:06.717Z,100043.98
2019-01-26T08:31:36.484Z,100033.41
2019-01-26T08:34:06.284Z,100022.12
2019-01-26T08:36:36.247Z,100005.17
2019-01-26T08:39:08.624Z,99968.08
2019-01-26T08:41:38.656Z,99919.05
2019-01-26T08:44:08.457Z,99896.05
2019-01-26T08:46:38.073Z,99884.67
2019-01-26T08:49:08.785Z,99864.21
2019-01-26T08:51:39.184Z,99834.26
2019-01-26T08:54:08.827Z,99814.95
2019-01-26T08:56:38.550Z,99813.76
2019-01-26T08:59:08.099Z,99803.28
2019-01-26T09:01:37.687Z,99786.45
2019-01-26T09:04:11.598Z,99780.52
2019-01-26T09:06:41.593Z,99749.91
2019-01-26T09:09:11.814Z,99712.32
2019-01-26T09:11:41.509Z,99682.54
2019-01-26T09:14:11.292Z,99663.77
2019-01-26T09:16:41.357Z,99630.02
2019-01-26T09:19:11.149Z,99591.87
2019-01-26T09:21:40.790Z,99549.00
2019-01-26T09:24:10.657Z,99510.87
2019-01-26T09:26:40.237Z,99430.99
2019-01-26T09:29:10.108Z,99388.47
2019-01-26T09:31:39.682Z,99327.55
2019-01-26T09:34:09.279Z,99277.16
2019-01-26T09:36:39.066Z,99213.66
2019-01-26T09:39:09.901Z,99175.49
2019-01-26T09:41:39.706Z,99110.30
2019-01-26T09:44:09.618Z,99040.67
2019-01-26T09:46:39.346Z,98962.16
2019-01-26T09:49:09.124Z,98868.38
2019-01-26T09:51:39.247Z,98820.80
2019-01-26T09:54:10.507Z,98785.96
2019-01-26T09:56:40.276Z,98752.37
2019-01-26T09:59:10.432Z,98724.89
2019-01-26T10:01:40.078Z,98708.93
2019-01-26T10:04:09.833Z,98688.82
2019-01-26T10:06:39.698Z,98657.28
2019-01-26T10:09:11.243Z,98648.80
2019-01-26T10:11:40.793Z,98634.17
2019-01-26T10:14:10.677Z,98627.84
2019-01-26T10:16:40.842Z,98617.71
2019-01-26T10:19:10.560Z,98606.09
2019-01-26T10:21:40.355Z,98596.31
2019-01-26T10:24:10.000Z,98586.08
2019-01-26T10:26:40.142Z,98576.09
2019-01-26T10:29:09.848Z,98565.19
2019-01-26T10:31:39.522Z,98557.69
2019-01-26T10:34:09.439Z,98544.66
2019-01-26T10:36:40.763Z,98540.28
2019-01-26T10:39:12.569Z,98531.56
2019-01-26T10:41:44.457Z,98519.61
2019-01-26T10:44:15.766Z,98524.77
2019-01-26T10:46:45.501Z,98505.32
2019-01-26T10:49:15.316Z,98500.37
2019-01-26T10:51:45.066Z,98485.44
2019-01-26T10:54:14.844Z,98473.73
2019-01-26T10:56:44.877Z,98453.76
2019-01-26T10:59:14.538Z,98457.85
2019-01-26T11:01:44.825Z,98452.81
2019-01-26T11:04:14.767Z,98445.84
2019-01-26T11:06:44.812Z,98439.22
2019-01-26T11:09:14.874Z,98430.28
2019-01-26T11:11:44.865Z,98422.52
2019-01-26T11:14:16.283Z,98427.28
2019-01-26T11:16:45.947Z,98417.86
2019-01-26T11:19:15.989Z,98413.45
2019-01-26T11:21:45.855Z,98407.98
2019-01-26T11:24:15.618Z,98405.67
2019-01-26T11:26:49.467Z,98403.66
2019-01-26T11:29:17.136Z,98395.48
2019-01-26T11:31:46.849Z,98390.82
2019-01-26T11:34:16.473Z,98393.42
2019-01-26T11:36:46.468Z,98387.05
2019-01-26T11:39:16.469Z,98425.41
2019-01-26T11:41:46.532Z,98395.13
2019-01-26T11:44:17.012Z,98513.26
2019-01-26T11:46:46.895Z,98339.85
2019-01-26T11:49:16.858Z,98339.16
2019-01-26T11:51:46.403Z,98369.66
2019-01-26T11:54:16.092Z,98359.75
2019-01-26T11:56:47.717Z,98359.95
2019-01-26T11:59:18.476Z,98360.69
2019-01-26T12:01:50.166Z,98357.94
2019-01-26T12:04:30.523Z,98346.13
2019-01-26T12:07:04.706Z,98347.68
2019-01-26T12:09:34.742Z,98329.52
2019-01-26T12:12:06.101Z,98341.34
2019-01-26T12:14:35.781Z,98349.41
2019-01-26T12:17:05.486Z,98347.02
2019-01-26T12:19:35.263Z,98349.05
2019-01-26T12:22:04.935Z,98356.25
2019-01-26T12:24:34.526Z,98343.50
2019-01-26T12:27:04.091Z,98353.18
2019-01-26T12:29:33.872Z,98400.28
2019-01-26T12:32:03.529Z,98409.92
2019-01-26T12:34:33.247Z,98439.13
2019-01-26T12:37:03.053Z,98441.52
2019-01-26T12:39:34.117Z,98413.88
2019-01-26T12:42:03.958Z,98407.87
2019-01-26T12:44:33.532Z,98391.06
2019-01-26T12:47:03.446Z,98385.95
2019-01-26T12:49:33.147Z,98381.86
2019-01-26T12:52:03.270Z,98358.28
2019-01-26T12:54:32.975Z,98357.64
2019-01-26T12:57:02.657Z,98359.94
2019-01-26T12:59:32.395Z,98453.84
2019-01-26T13:02:02.200Z,98428.91
2019-01-26T13:04:32.147Z,98431.06
2019-01-26T13:07:05.432Z,98428.66
2019-01-26T13:09:35.517Z,98405.04
2019-01-26T13:12:05.285Z,98392.95
2019-01-26T13:14:35.164Z,98378.71
2019-01-26T13:17:05.230Z,98380.55
2019-01-26T13:19:36.986Z,98391.78
2019-01-26T13:22:07.005Z,98385.52
2019-01-26T13:24:36.742Z,98381.42
2019-01-26T13:27:06.578Z,98386.67
2019-01-26T13:29:36.318Z,98330.37
2019-01-26T13:32:06.020Z,98369.58
2019-01-26T13:34:36.126Z,98375.03
2019-01-26T13:37:06.187Z,98373.36
2019-01-26T13:39:35.903Z,98363.45
2019-01-26T13:42:06.346Z,98368.94
2019-01-26T13:44:37.835Z,98322.23
2019-01-26T13:47:07.535Z,98376.10
2019-01-26T13:49:43.855Z,98377.84
2019-01-26T13:52:09.030Z,98360.18
2019-01-26T13:54:39.269Z,98344.84
2019-01-26T13:57:08.931Z,98303.38
2019-01-26T13:59:38.570Z,98331.91
2019-01-26T14:02:08.659Z,98319.48
2019-01-26T14:04:38.801Z,98324.59
2019-01-26T14:07:09.071Z,98326.13
2019-01-26T14:09:38.582Z,98328.03
2019-01-26T14:12:08.504Z,98356.43
2019-01-26T14:14:38.336Z,98357.17
2019-01-26T14:17:07.960Z,98372.72
2019-01-26T14:19:37.754Z,98391.41
2019-01-26T14:22:07.413Z,98401.87
2019-01-26T14:24:37.602Z,98409.61
2019-01-26T14:27:07.708Z,98411.75
2019-01-26T14:29:38.863Z,98429.52
2019-01-26T14:32:08.707Z,98435.47
2019-01-26T14:34:38.390Z,98438.06
2019-01-26T14:37:08.560Z,98445.70
2019-01-26T14:39:39.878Z,98454.72
2019-01-26T14:42:09.495Z,98442.90
2019-01-26T14:44:39.652Z,98451.20
2019-01-26T14:47:09.453Z,98456.86
2019-01-26T14:49:39.506Z,98468.50
2019-01-26T14:52:09.685Z,98484.13
2019-01-26T14:54:39.841Z,98478.55
2019-01-26T14:57:10.386Z,98482.07
2019-01-26T14:59:40.008Z,98480.02
2019-01-26T15:02:10.534Z,98479.30
2019-01-26T15:04:40.740Z,98479.77
2019-01-26T15:07:11.000Z,98479.36
2019-01-26T15:09:41.194Z,98479.30
2019-01-26T15:12:10.970Z,98470.41
2019-01-26T15:14:40.931Z,98474.45
2019-01-26T15:17:10.918Z,98459.18
2019-01-26T15:19:40.496Z,98477.65
2019-01-26T15:22:10.177Z,98476.44
2019-01-26T15:24:40.190Z,98477.81
2019-01-26T15:27:10.487Z,98449.00
2019-01-26T15:29:40.749Z,98446.53
2019-01-26T15:32:10.959Z,98455.94
2019-01-26T15:34:41.243Z,98450.85
2019-01-26T15:37:11.194Z,98445.33
2019-01-26T15:39:41.372Z,98451.41
2019-01-26T15:42:11.398Z,98439.52
2019-01-26T15:44:41.465Z,98428.94
2019-01-26T15:47:11.666Z,98420.89
2019-01-26T15:49:41.340Z,98418.25
2019-01-26T15:52:11.451Z,98408.98
2019-01-26T15:54:41.395Z,98405.59
2019-01-26T15:57:11.188Z,98391.92
2019-01-26T15:59:41.116Z,98393.06
2019-01-26T16:02:10.933Z,98388.96
2019-01-26T16:04:40.621Z,98389.15
2019-01-26T16:07:10.342Z,98383.64
2019-01-26T16:09:40.182Z,98395.76
2019-01-26T16:12:10.102Z,98398.06
2019-01-26T16:14:39.850Z,98369.20
2019-01-26T16:17:09.689Z,98388.68
2019-01-26T16:19:39.734Z,98386.48
2019-01-26T16:22:09.986Z,98368.67
2019-01-26T16:24:39.861Z,98380.30
2019-01-26T16:27:09.849Z,98357.59
2019-01-26T16:29:39.675Z,98358.03
2019-01-26T16:32:09.659Z,98359.75
2019-01-26T16:34:39.704Z,98361.05
2019-01-26T16:37:09.715Z,98358.95
2019-01-26T16:39:39.591Z,98365.64
2019-01-26T16:42:10.201Z,98362.41
2019-01-26T16:44:39.980Z,98356.83
2019-01-26T16:47:10.014Z,98356.14
2019-01-26T16:49:39.934Z,98337.42
2019-01-26T16:52:13.952Z,98356.55
2019-01-26T16:54:41.146Z,98355.39
2019-01-26T16:57:12.055Z,98351.03
2019-01-26T16:59:41.877Z,98337.66
2019-01-26T17:02:11.814Z,98336.34
2019-01-26T17:04:41.401Z,98343.75
2019-01-26T17:07:11.380Z,98331.72
2019-01-26T17:09:41.114Z,98323.77
2019-01-26T17:12:11.243Z,98322.92
2019-01-26T17:14:40.841Z,98310.92
2019-01-26T17:17:10.845Z,98306.88
2019-01-26T17:19:40.575Z,98296.80
2019-01-26T17:22:10.415Z,98294.50
2019-01-26T17:24:40.038Z,98299.92
2019-01-26T17:27:10.199Z,98288.28
2019-01-26T17:29:39.915Z,98283.12
2019-01-26T17:32:09.618Z,98287.81
2019-01-26T17:34:39.580Z,98285.28
2019-01-26T17:37:09.588Z,98287.64
2019-01-26T17:39:39.139Z,98266.42
2019-01-26T17:42:09.229Z,98275.20
2019-01-26T17:44:38.855Z,98262.77
2019-01-26T17:47:08.762Z,98246.73
2019-01-26T17:49:38.556Z,98234.64
2019-01-26T17:52:08.308Z,98232.30
2019-01-26T17:54:39.653Z,98220.55
2019-01-26T17:57:09.584Z,98226.28
2019-01-26T17:59:39.640Z,98216.87
2019-01-26T18:02:10.148Z,98206.92
2019-01-26T18:04:39.798Z,98195.09
2019-01-26T18:07:09.463Z,98175.81
2019-01-26T18:09:39.595Z,98168.52
2019-01-26T18:12:09.548Z,98179.03
2019-01-26T18:14:39.185Z,98180.48
2019-01-26T18:17:08.994Z,98174.87
2019-01-26T18:19:38.887Z,98157.11
2019-01-26T18:22:08.600Z,98152.34
2019-01-26T18:24:38.569Z,98140.43
2019-01-26T18:27:08.234Z,98139.09
2019-01-26T18:29:37.859Z,98134.59
2019-01-26T18:32:07.599Z,98121.38
2019-01-26T18:34:37.289Z,98128.41
2019-01-26T18:37:07.035Z,98103.77
2019-01-26T18:39:36.726Z,98113.19
2019-01-26T18:42:06.548Z,98111.72
2019-01-26T18:44:36.461Z,98105.58
2019-01-26T18:47:06.649Z,98100.33
2019-01-26T18:49:36.828Z,98092.20
2019-01-26T18:52:06.938Z,98093.22
2019-01-26T18:54:36.599Z,98084.62
2019-01-26T18:57:06.662Z,98087.55
2019-01-26T18:59:36.778Z,98068.31
2019-01-26T19:02:07.512Z,98074.41
2019-01-26T19:04:37.469Z,98064.88
2019-01-26T19:07:07.294Z,98059.53
2019-01-26T19:09:37.294Z,98062.52
2019-01-26T19:12:07.011Z,98049.31
2019-01-26T19:14:36.539Z,98036.91
2019-01-26T19:17:06.368Z,98031.62
2019-01-26T19:19:35.984Z,98037.66
2019-01-26T19:22:05.965Z,98027.52
2019-01-26T19:24:35.779Z,98039.53
2019-01-26T19:27:05.984Z,98020.25
2019-01-26T19:29:35.806Z,98019.24
2019-01-26T19:32:05.663Z,98029.15
2019-01-26T19:34:35.684Z,98025.86
2019-01-26T19:37:09.335Z,98016.41
2019-01-26T19:39:37.489Z,98008.38
2019-01-26T19:42:07.690Z,97997.69
2019-01-26T19:44:37.217Z,98008.50
2019-01-26T19:47:07.217Z,98009.76
2019-01-26T19:49:36.887Z,98010.33
2019-01-26T19:52:06.999Z,97996.95
2019-01-26T19:54:36.711Z,98001.95
2019-01-26T19:57:06.364Z,97995.98
2019-01-26T19:59:36.368Z,97989.33
2019-01-26T20:02:07.293Z,97979.33
2019-01-26T20:04:36.992Z,97981.87
2019-01-26T20:07:06.747Z,97983.50
2019-01-26T20:09:36.434Z,97976.38
2019-01-26T20:12:06.182Z,97961.75
2019-01-26T20:14:36.387Z,97960.34
2019-01-26T20:17:06.154Z,97963.23
2019-01-26T20:19:36.124Z,97959.69
2019-01-26T20:22:06.102Z,97948.17
2019-01-26T20:24:35.790Z,97944.05
2019-01-26T20:27:05.912Z,97947.69
2019-01-26T20:29:35.665Z,97931.71
2019-01-26T20:32:05.490Z,97937.50
2019-01-26T20:34:35.509Z,97922.46
2019-01-26T20:37:05.684Z,97922.56
2019-01-26T20:39:35.561Z,97918.86
2019-01-26T20:42:05.609Z,97904.05
2019-01-26T20:44:35.263Z,97900.23
2019-01-26T20:47:05.352Z,97897.02
2019-01-26T20:49:35.382Z,97896.91
2019-01-26T20:52:05.363Z,97885.75
2019-01-26T20:54:34.994Z,97885.33
2019-01-26T20:57:05.013Z,97880.00
2019-01-26T20:59:34.766Z,97880.13
2019-01-26T21:02:05.356Z,97890.55
2019-01-26T21:04:35.379Z,97865.89
2019-01-26T21:07:05.084Z,97876.51
2019-01-26T21:09:34.885Z,97865.53
2019-01-26T21:12:04.752Z,97868.52
2019-01-26T21:14:34.597Z,97868.09
2019-01-26T21:17:04.547Z,97854.81
2019-01-26T21:19:34.765Z,97843.74
2019-01-26T21:22:04.468Z,97832.85
2019-01-26T21:24:34.226Z,97820.80
2019-01-26T21:27:03.997Z,97828.23
2019-01-26T21:29:34.138Z,97827.17
2019-01-26T21:32:04.240Z,97817.21
2019-01-26T21:34:34.202Z,97816.24
2019-01-26T21:37:03.807Z,97822.15
2019-01-26T21:39:33.421Z,97821.34
2019-01-26T21:42:03.141Z,97810.41
2019-01-26T21:44:33.058Z,97801.07
2019-01-26T21:47:02.931Z,97791.69
2019-01-26T21:49:32.627Z,97785.30
2019-01-26T21:52:02.464Z,97771.94
2019-01-26T21:54:32.594Z,97759.50
2019-01-26T21:57:02.337Z,97752.09
2019-01-26T21:59:39.354Z,97726.13
2019-01-26T22:02:09.337Z,97726.11
2019-01-26T22:04:39.125Z,97724.80
2019-01-26T22:07:08.947Z,97712.66
2019-01-26T22:09:38.698Z,97710.95
2019-01-26T22:12:08.584Z,97687.15
2019-01-26T22:14:38.394Z,97686.45
2019-01-26T22:17:08.325Z,97686.20
2019-01-26T22:19:38.067Z,97674.31
2019-01-26T22:22:08.030Z,97681.89
2019-01-26T22:24:37.781Z,97662.92
2019-01-26T22:27:07.680Z,97657.78
2019-01-26T22:29:37.724Z,97662.11
2019-01-26T22:32:09.094Z,97659.30
2019-01-26T22:34:39.073Z,97652.77
2019-01-26T22:37:09.175Z,97651.66
2019-01-26T22:39:39.508Z,97649.50
2019-01-26T22:42:09.587Z,97634.67
2019-01-26T22:44:39.775Z,97646.59
2019-01-26T22:47:10.844Z,97644.80
2019-01-26T22:49:40.764Z,97635.78
2019-01-26T22:52:10.542Z,97627.96
2019-01-26T22:54:40.693Z,97626.11
2019-01-26T22:57:10.705Z,97622.10
2019-01-26T22:59:40.784Z,97610.70
2019-01-26T23:02:10.687Z,97616.61
2019-01-26T23:04:45.028Z,97601.98
2019-01-26T23:07:28.737Z,97608.27
2019-01-26T23:10:18.051Z,97597.59
2019-01-26T23:13:04.286Z,97599.63
2019-01-26T23:15:56.511Z,97609.78
2019-01-26T23:19:08.188Z,97603.59
2019-01-26T23:21:51.378Z,97579.85
2019-01-26T23:24:54.278Z,97572.27
2019-01-26T23:28:03.557Z,97574.48
2019-01-26T23:31:14.165Z,97555.83
2019-01-26T23:33:44.716Z,97561.33
2019-01-26T23:36:15.867Z,97559.51
2019-01-26T23:38:45.622Z,97558.81
2019-01-26T23:41:15.549Z,97550.72
2019-01-26T23:43:45.588Z,97535.98
2019-01-26T23:46:15.367Z,97526.40
2019-01-26T23:48:45.366Z,97532.95
2019-01-26T23:51:15.662Z,97529.08
2019-01-26T23:53:45.482Z,97529.99
2019-01-26T23:56:15.244Z,97524.72
2019-01-26T23:58:45.267Z,97520.23
